Alyeska Resort
Hourly Weather - Base Weather Site
ALY_BASE_HR 5/24/2015
CLICK TO VIEW GRAPH!!

        DATE  TIME   Air  BATT   H2o   H2o   Rel
                    Temp  Volt  Inch Since  Hum%
                      F   AVG   1HR  0600   AVG

   5/24/2015 02:00    47 13.76  0.01  0.18    94
   5/24/2015 01:00    47 13.75  0.01  0.17    93
   5/23/2015 24:00    47 13.74  0.03  0.16    92
   5/23/2015 23:00    48 13.72  0.02  0.13    92
   5/23/2015 22:00    49 13.71  0.03  0.11    92
   5/23/2015 21:00    50 13.69  0.04  0.08    89
   5/23/2015 20:00    51 13.68  0.02  0.04    86
   5/23/2015 19:00    52 13.66  0.01  0.02    84
   5/23/2015 18:00    52 13.64  0.00  0.01    84
   5/23/2015 17:00    53 13.62  0.01  0.01    80
   5/23/2015 16:00    54 13.58  0.00  0.00    74
   5/23/2015 15:00    56 13.55  0.00  0.00    67
   5/23/2015 14:00    57 13.52  0.00  0.00    62
   5/23/2015 13:00    59 13.50  0.00  0.00    56
   5/23/2015 12:00    62 13.49  0.00  0.00    48
   5/23/2015 11:00    61 13.50  0.00  0.00    50
   5/23/2015 10:00    61 13.54  0.00  0.00    50
   5/23/2015 09:00    58 13.67  0.00  0.00    54
   5/23/2015 08:00    50 13.77  0.00  0.00    73
   5/23/2015 07:00    47 13.79  0.00  0.00    78
   5/23/2015 06:00    47 13.79  0.00  0.00    75
   5/23/2015 05:00    46 13.78  0.00  0.00    78
   5/23/2015 04:00    48 13.75  0.00  0.00    71
   5/23/2015 03:00    49 13.73  0.00  0.00    69


CLICK TO VIEW GRAPH!!